Frankford, Delaware
Current Conditions -  °F | °C
As of 6:54 PM on Thursday 27 Nov 2014 (Local Time) from KGED Reporting Station
Clear Clear  
Wind Chill:   Ceiling: Unl
Heat Index:   Visibility: 10mi
Dew Point: -2°   Wind: 3mph
Humidity: 70%   Direction: 330°NNW
Pressure: 30.1"   Gusts: NA
Location:  38.52°N, 75.23°W
Report Text: KGED 272354Z AUTO 33003KT 10SM CLR 03/M02 A3010 RMK AO2 SLP193 T00281022 10072 20028 53020
Loading
Personal Weather Stations






























Interactive Weather Map New forecast layout! Learn more

10-Day Weather Forecast

Advertisements
Track Severe Weather on mobile